createdAt,value
2017-11-07T00:00:13.635Z,0
2017-11-07T00:00:54.239Z,0
2017-11-07T00:01:34.630Z,0
2017-11-07T00:02:15.280Z,0
2017-11-07T00:02:56.263Z,0
2017-11-07T00:03:37.290Z,0
2017-11-07T00:07:43.103Z,0
2017-11-07T00:08:37.385Z,0
2017-11-07T00:09:29.949Z,0
2017-11-07T00:10:22.336Z,0
2017-11-07T00:11:14.882Z,0
2017-11-07T00:12:06.937Z,0
2017-11-07T00:12:59.378Z,0
2017-11-07T00:13:51.568Z,0
2017-11-07T00:14:43.787Z,0
2017-11-07T00:15:36.249Z,0
2017-11-07T00:16:29.267Z,0
2017-11-07T00:17:22.148Z,0
2017-11-07T00:18:15.939Z,0
2017-11-07T00:19:08.208Z,0
2017-11-07T00:20:00.610Z,0
2017-11-07T00:20:52.658Z,0
2017-11-07T00:21:36.027Z,0
2017-11-07T00:22:16.514Z,0
2017-11-07T00:22:56.945Z,0
2017-11-07T00:23:37.345Z,0
2017-11-07T00:24:17.769Z,0
2017-11-07T00:24:58.142Z,0
2017-11-07T00:25:38.534Z,0
2017-11-07T00:26:18.927Z,0
2017-11-07T00:26:59.375Z,0
2017-11-07T00:27:39.791Z,0
2017-11-07T00:28:20.153Z,0
2017-11-07T00:29:00.536Z,0
2017-11-07T00:29:41.028Z,0
2017-11-07T00:30:21.397Z,0
2017-11-07T00:31:02.706Z,0
2017-11-07T00:31:42.422Z,0
2017-11-07T00:32:22.921Z,0
2017-11-07T00:33:03.312Z,0
2017-11-07T00:33:43.743Z,0
2017-11-07T00:34:24.126Z,0
2017-11-07T00:35:04.420Z,0
2017-11-07T00:35:44.956Z,0
2017-11-07T00:36:25.333Z,0
2017-11-07T00:37:05.778Z,0
2017-11-07T00:37:46.148Z,0
2017-11-07T00:38:26.506Z,0
2017-11-07T00:39:06.947Z,0
2017-11-07T00:39:47.362Z,0
2017-11-07T00:40:27.695Z,0
2017-11-07T00:41:08.168Z,0
2017-11-07T00:41:48.508Z,0
2017-11-07T00:42:28.937Z,0
2017-11-07T00:43:09.359Z,0
2017-11-07T00:43:49.852Z,0
2017-11-07T00:44:30.206Z,0
2017-11-07T00:45:10.714Z,0
2017-11-07T00:45:51.103Z,0
2017-11-07T00:46:31.534Z,0
2017-11-07T00:47:12.083Z,0
2017-11-07T00:47:52.537Z,0
2017-11-07T00:48:32.902Z,0
2017-11-07T00:49:13.312Z,0
2017-11-07T00:49:53.689Z,0
2017-11-07T00:50:34.188Z,0
2017-11-07T00:51:14.663Z,0
2017-11-07T00:51:55.106Z,0
2017-11-07T00:52:35.514Z,0
2017-11-07T00:53:15.931Z,0
2017-11-07T00:53:56.338Z,0
2017-11-07T00:54:36.715Z,0
2017-11-07T00:55:17.168Z,0
2017-11-07T00:55:57.599Z,0
2017-11-07T00:56:37.965Z,0
2017-11-07T00:57:18.359Z,0
2017-11-07T00:57:58.812Z,0
2017-11-07T00:58:39.174Z,0
2017-11-07T00:59:19.615Z,0
2017-11-07T00:59:59.991Z,0
2017-11-07T01:00:40.476Z,0
2017-11-07T01:01:20.864Z,0
2017-11-07T01:02:01.460Z,0
2017-11-07T01:02:41.921Z,0
2017-11-07T01:03:22.263Z,0
2017-11-07T01:04:02.776Z,0
2017-11-07T01:04:43.233Z,0
2017-11-07T01:05:23.636Z,0
2017-11-07T01:06:04.015Z,0
2017-11-07T01:06:44.345Z,0
2017-11-07T01:07:24.780Z,0
2017-11-07T01:08:05.240Z,0
2017-11-07T01:08:45.642Z,0
2017-11-07T01:09:26.028Z,0
2017-11-07T01:10:06.524Z,0
2017-11-07T01:10:46.976Z,0
2017-11-07T01:11:27.295Z,0
2017-11-07T01:12:07.760Z,0
2017-11-07T01:12:48.192Z,0
2017-11-07T01:13:28.608Z,0
2017-11-07T01:14:08.996Z,0
2017-11-07T01:14:49.424Z,0
2017-11-07T01:15:29.891Z,0
2017-11-07T01:16:10.241Z,0
2017-11-07T01:16:50.696Z,0
2017-11-07T01:17:31.106Z,0
2017-11-07T01:18:11.591Z,0
2017-11-07T01:18:52.069Z,0
2017-11-07T01:19:32.436Z,0
2017-11-07T01:20:12.865Z,0
2017-11-07T01:20:53.264Z,0
2017-11-07T01:21:33.694Z,0
2017-11-07T01:22:14.029Z,0
2017-11-07T01:22:54.456Z,0
2017-11-07T01:23:34.810Z,0
2017-11-07T01:24:15.272Z,0
2017-11-07T01:24:55.631Z,0
2017-11-07T01:25:36.041Z,0
2017-11-07T01:26:16.397Z,0
2017-11-07T01:26:56.794Z,0
2017-11-07T01:27:37.311Z,0
2017-11-07T01:28:17.805Z,0
2017-11-07T01:28:58.271Z,0
2017-11-07T01:29:38.714Z,0
2017-11-07T01:30:19.179Z,0
2017-11-07T01:30:59.489Z,0
2017-11-07T01:31:39.935Z,0
2017-11-07T01:32:20.370Z,0
2017-11-07T01:33:00.761Z,0
2017-11-07T01:33:41.151Z,0
2017-11-07T01:34:21.649Z,0
2017-11-07T01:35:02.024Z,0
2017-11-07T01:35:42.506Z,0
2017-11-07T01:36:22.939Z,0
2017-11-07T01:37:03.298Z,0
2017-11-07T01:37:44.240Z,0
2017-11-07T01:38:24.079Z,0
2017-11-07T01:39:04.448Z,0
2017-11-07T01:39:44.844Z,0
2017-11-07T01:40:25.274Z,0
2017-11-07T01:41:05.682Z,0
2017-11-07T01:41:46.051Z,0
2017-11-07T01:42:26.491Z,0
2017-11-07T01:43:06.851Z,0
2017-11-07T01:43:47.266Z,0
2017-11-07T01:44:27.699Z,0
2017-11-07T01:45:08.089Z,0
2017-11-07T01:45:48.504Z,0
2017-11-07T01:46:28.901Z,0
2017-11-07T01:47:09.386Z,0
2017-11-07T01:47:49.853Z,0
2017-11-07T01:48:30.206Z,0
2017-11-07T01:49:10.647Z,0
2017-11-07T01:49:50.993Z,0
2017-11-07T01:50:31.410Z,0
2017-11-07T01:51:11.801Z,0
2017-11-07T01:51:52.230Z,0
2017-11-07T01:52:32.626Z,0
2017-11-07T01:53:13.074Z,0
2017-11-07T01:53:53.450Z,0
2017-11-07T01:54:33.859Z,0
2017-11-07T01:55:14.268Z,0
2017-11-07T01:55:54.706Z,0
2017-11-07T01:56:35.139Z,0
2017-11-07T01:57:15.605Z,0
2017-11-07T01:57:56.006Z,0
2017-11-07T01:58:36.339Z,0
2017-11-07T01:59:16.805Z,0
2017-11-07T01:59:57.156Z,0
2017-11-07T02:00:37.632Z,0
2017-11-07T02:01:18.116Z,0
2017-11-07T02:01:58.444Z,0
2017-11-07T02:02:38.843Z,0
2017-11-07T02:03:19.396Z,0
2017-11-07T02:03:59.790Z,0
2017-11-07T02:04:40.159Z,0
2017-11-07T02:05:20.582Z,0
2017-11-07T02:06:00.984Z,0
2017-11-07T02:06:41.412Z,0
2017-11-07T02:07:21.861Z,0
2017-11-07T02:08:02.254Z,0
2017-11-07T02:08:42.761Z,0
2017-11-07T02:09:23.163Z,0
2017-11-07T02:10:03.574Z,0
2017-11-07T02:10:43.944Z,0
2017-11-07T02:11:24.404Z,0
2017-11-07T02:12:04.843Z,0
2017-11-07T02:12:45.255Z,0
2017-11-07T02:13:25.653Z,0
2017-11-07T02:14:06.091Z,0
2017-11-07T02:14:46.437Z,0
2017-11-07T02:15:26.860Z,0
2017-11-07T02:16:07.292Z,0
2017-11-07T02:16:47.786Z,0
2017-11-07T02:17:28.273Z,0
2017-11-07T02:18:08.694Z,0
2017-11-07T02:18:49.038Z,0
2017-11-07T02:19:29.569Z,0
2017-11-07T02:20:09.989Z,0
2017-11-07T02:20:50.387Z,0
2017-11-07T02:21:30.763Z,0
2017-11-07T02:22:11.209Z,0
2017-11-07T02:22:51.613Z,0
2017-11-07T02:23:32.030Z,0
2017-11-07T02:24:12.359Z,0
2017-11-07T02:24:52.769Z,0
2017-11-07T02:25:33.209Z,0
2017-11-07T02:26:13.585Z,0
2017-11-07T02:26:54.104Z,0
2017-11-07T02:27:34.503Z,0
2017-11-07T02:28:14.974Z,0
2017-11-07T02:28:55.348Z,0
2017-11-07T02:29:35.781Z,0
2017-11-07T02:30:16.188Z,0
2017-11-07T02:30:56.632Z,0
2017-11-07T02:31:37.054Z,0
2017-11-07T02:32:17.388Z,0
2017-11-07T02:32:57.766Z,0
2017-11-07T02:33:38.170Z,0
2017-11-07T02:34:18.622Z,0
2017-11-07T02:34:58.952Z,0
2017-11-07T02:35:39.353Z,0
2017-11-07T02:36:19.759Z,0
2017-11-07T02:37:00.211Z,0
2017-11-07T02:37:40.545Z,0
2017-11-07T02:38:20.964Z,0
2017-11-07T02:39:01.370Z,0
2017-11-07T02:39:41.725Z,0
2017-11-07T02:40:22.122Z,0
2017-11-07T02:41:02.601Z,0
2017-11-07T02:41:43.061Z,0
2017-11-07T02:42:23.453Z,0
2017-11-07T02:43:03.851Z,0
2017-11-07T02:43:44.241Z,0
2017-11-07T02:44:24.749Z,0
2017-11-07T02:45:05.146Z,0
2017-11-07T02:45:45.460Z,0
2017-11-07T02:46:25.930Z,0
2017-11-07T02:47:06.286Z,0
2017-11-07T02:47:46.785Z,0
2017-11-07T02:48:27.125Z,0
2017-11-07T02:49:07.524Z,0
2017-11-07T02:49:47.889Z,0
2017-11-07T02:50:28.320Z,0
2017-11-07T02:51:08.662Z,0
2017-11-07T02:51:49.239Z,0
2017-11-07T02:52:29.633Z,0
2017-11-07T02:53:10.014Z,0
2017-11-07T02:53:50.403Z,0
2017-11-07T02:54:30.918Z,0
2017-11-07T02:55:11.288Z,0
2017-11-07T02:55:51.670Z,0
2017-11-07T02:56:32.086Z,0
2017-11-07T02:57:12.483Z,0
2017-11-07T02:57:53.015Z,0
2017-11-07T02:58:33.384Z,0
2017-11-07T02:59:13.836Z,0
2017-11-07T02:59:54.190Z,0
2017-11-07T03:00:34.677Z,0
2017-11-07T03:01:15.026Z,0
2017-11-07T03:01:55.479Z,0
2017-11-07T03:02:35.918Z,0
2017-11-07T03:03:16.370Z,0
2017-11-07T03:03:56.704Z,0
2017-11-07T03:04:37.096Z,0
2017-11-07T03:05:17.460Z,0
2017-11-07T03:05:57.895Z,0
2017-11-07T03:06:38.317Z,0
2017-11-07T03:07:18.754Z,0
2017-11-07T03:07:59.126Z,0
2017-11-07T03:08:39.435Z,0
2017-11-07T03:09:19.952Z,0
2017-11-07T03:10:00.240Z,0
2017-11-07T03:10:40.658Z,0
2017-11-07T03:11:21.071Z,0
2017-11-07T03:12:01.557Z,0
2017-11-07T03:12:41.883Z,0
2017-11-07T03:13:22.383Z,0
2017-11-07T03:14:02.784Z,0
2017-11-07T03:14:43.331Z,0
2017-11-07T03:15:23.744Z,0
2017-11-07T03:16:04.207Z,0
2017-11-07T03:16:44.578Z,0
2017-11-07T03:17:24.986Z,0
2017-11-07T03:18:05.402Z,0
2017-11-07T03:18:45.844Z,0
2017-11-07T03:19:26.248Z,0
2017-11-07T03:20:06.598Z,0
2017-11-07T03:20:46.981Z,0
2017-11-07T03:21:27.345Z,0
2017-11-07T03:22:07.881Z,0
2017-11-07T03:22:48.224Z,0
2017-11-07T03:23:28.642Z,0
2017-11-07T03:24:09.030Z,0
2017-11-07T03:24:49.393Z,0
2017-11-07T03:25:29.873Z,0
2017-11-07T03:26:10.291Z,0
2017-11-07T03:26:50.658Z,0
2017-11-07T03:27:31.073Z,0
2017-11-07T03:28:11.446Z,0
2017-11-07T03:28:51.802Z,0
2017-11-07T03:29:32.171Z,0
2017-11-07T03:30:12.602Z,0
2017-11-07T03:30:52.943Z,0
2017-11-07T03:31:33.389Z,0
2017-11-07T03:32:13.838Z,0
2017-11-07T03:32:54.228Z,0
2017-11-07T03:33:34.840Z,0
2017-11-07T03:34:15.232Z,0
2017-11-07T03:34:55.601Z,0
2017-11-07T03:35:36.023Z,0
2017-11-07T03:36:16.384Z,0
2017-11-07T03:36:56.836Z,0
2017-11-07T03:37:37.197Z,0
2017-11-07T03:38:17.576Z,0
2017-11-07T03:38:57.945Z,0
2017-11-07T03:39:38.523Z,0
2017-11-07T03:40:18.830Z,0
2017-11-07T03:40:59.279Z,0
2017-11-07T03:41:39.662Z,0
2017-11-07T03:42:20.025Z,0
2017-11-07T03:43:00.418Z,0
2017-11-07T03:43:40.844Z,0
2017-11-07T03:44:21.180Z,0
2017-11-07T03:45:01.644Z,0
2017-11-07T03:45:42.060Z,0
2017-11-07T03:46:22.556Z,0
2017-11-07T03:47:02.943Z,0
2017-11-07T03:47:43.403Z,0
2017-11-07T03:48:23.850Z,0
2017-11-07T03:49:04.244Z,0
2017-11-07T03:49:44.577Z,0
2017-11-07T03:50:25.055Z,0
2017-11-07T03:51:05.377Z,0
2017-11-07T03:51:45.819Z,0
2017-11-07T03:52:26.233Z,0
2017-11-07T03:53:06.593Z,0
2017-11-07T03:53:47.048Z,0
2017-11-07T03:54:27.425Z,0
2017-11-07T03:55:07.831Z,0
2017-11-07T03:55:48.281Z,0
2017-11-07T03:56:28.725Z,0
2017-11-07T03:57:09.201Z,0
2017-11-07T03:57:49.621Z,0
2017-11-07T03:58:29.986Z,0
2017-11-07T03:59:10.438Z,0
2017-11-07T03:59:50.832Z,0
2017-11-07T04:00:31.282Z,0
2017-11-07T04:01:11.654Z,0
2017-11-07T04:01:52.150Z,0
2017-11-07T04:41:50.824Z,0
2017-11-07T04:44:16.211Z,0
2017-11-07T04:45:08.645Z,0
2017-11-07T04:46:02.712Z,0
2017-11-07T04:46:55.886Z,0
2017-11-07T04:47:47.076Z,0
2017-11-07T04:48:40.745Z,0
2017-11-07T04:49:33.139Z,0
2017-11-07T04:50:25.107Z,0
2017-11-07T04:51:17.886Z,0
2017-11-07T04:52:09.886Z,0
2017-11-07T04:53:02.255Z,0
2017-11-07T04:53:54.931Z,0
2017-11-07T04:54:47.681Z,0
2017-11-07T04:55:40.079Z,0
2017-11-07T04:56:32.910Z,0
2017-11-07T04:57:25.186Z,0
2017-11-07T04:58:14.723Z,0
2017-11-07T04:58:54.563Z,0
2017-11-07T04:59:34.911Z,0
2017-11-07T05:00:15.295Z,0
2017-11-07T05:00:55.662Z,0
2017-11-07T05:01:36.094Z,0
2017-11-07T05:02:16.487Z,0
2017-11-07T05:02:56.845Z,0
2017-11-07T05:03:37.202Z,0
2017-11-07T05:04:17.655Z,0
2017-11-07T05:04:58.101Z,0
2017-11-07T05:05:38.537Z,0
2017-11-07T05:06:18.931Z,0
2017-11-07T05:06:59.428Z,0
2017-11-07T05:07:39.883Z,0
2017-11-07T05:08:20.391Z,0
2017-11-07T05:09:00.859Z,0
2017-11-07T05:09:41.301Z,0
2017-11-07T05:10:21.729Z,0
2017-11-07T05:11:02.134Z,0
2017-11-07T05:11:42.532Z,0
2017-11-07T05:12:22.916Z,0
2017-11-07T05:13:03.368Z,0
2017-11-07T05:13:43.769Z,0
2017-11-07T05:14:24.185Z,0
2017-11-07T05:15:04.566Z,0
2017-11-07T05:15:45.046Z,0
2017-11-07T05:16:25.428Z,0
2017-11-07T05:17:05.822Z,0
2017-11-07T05:17:46.273Z,0
2017-11-07T05:18:26.646Z,0
2017-11-07T05:19:07.050Z,0
2017-11-07T05:19:47.385Z,0
2017-11-07T05:20:27.797Z,0
2017-11-07T05:21:08.310Z,0
2017-11-07T05:21:48.728Z,0
2017-11-07T05:22:29.076Z,0
2017-11-07T05:23:09.531Z,0
2017-11-07T05:23:49.998Z,0
2017-11-07T05:24:30.400Z,0
2017-11-07T05:25:10.689Z,0
2017-11-07T05:25:51.124Z,0
2017-11-07T05:26:31.508Z,0
2017-11-07T05:27:11.903Z,0
2017-11-07T05:27:52.306Z,0
2017-11-07T05:28:32.747Z,0
2017-11-07T05:29:13.286Z,0
2017-11-07T05:29:53.592Z,0
2017-11-07T05:30:33.955Z,0
2017-11-07T05:31:14.510Z,0
2017-11-07T05:31:54.885Z,0
2017-11-07T05:32:35.400Z,0
2017-11-07T05:33:15.656Z,0
2017-11-07T05:33:56.039Z,0
2017-11-07T05:34:36.442Z,0
2017-11-07T05:35:16.870Z,0
2017-11-07T05:35:57.253Z,0
2017-11-07T05:36:37.789Z,0
2017-11-07T05:37:18.302Z,0
2017-11-07T05:37:58.704Z,0
2017-11-07T05:38:39.056Z,0
2017-11-07T05:39:19.487Z,0
2017-11-07T05:39:59.904Z,0
2017-11-07T05:40:40.337Z,0
2017-11-07T05:41:20.773Z,0
2017-11-07T05:42:01.188Z,0
2017-11-07T05:42:41.498Z,0
2017-11-07T05:43:21.970Z,0
2017-11-07T05:44:02.337Z,0
2017-11-07T05:44:42.742Z,0
2017-11-07T05:45:23.134Z,0
2017-11-07T05:46:03.729Z,0
2017-11-07T05:46:44.195Z,0
2017-11-07T05:47:24.538Z,0
2017-11-07T05:48:04.995Z,0
2017-11-07T05:48:45.354Z,0
2017-11-07T05:49:25.764Z,0
2017-11-07T05:50:06.149Z,0
2017-11-07T05:50:46.574Z,0
2017-11-07T05:51:27.049Z,0
2017-11-07T05:52:07.482Z,0
2017-11-07T05:52:47.891Z,0
2017-11-07T05:53:28.216Z,0
2017-11-07T05:54:08.803Z,0
2017-11-07T05:54:49.310Z,0
2017-11-07T05:55:29.728Z,0
2017-11-07T05:56:10.212Z,0
2017-11-07T05:56:50.621Z,0
2017-11-07T05:57:31.120Z,0
2017-11-07T05:58:11.650Z,0
2017-11-07T05:58:52.507Z,0
2017-11-07T05:59:33.138Z,0
2017-11-07T06:00:13.934Z,0
2017-11-07T06:00:54.251Z,0
2017-11-07T06:01:34.723Z,0
2017-11-07T06:02:15.126Z,0
2017-11-07T06:02:55.436Z,0
2017-11-07T06:03:35.857Z,0
2017-11-07T06:04:16.376Z,0
2017-11-07T06:04:56.897Z,0
2017-11-07T06:05:37.405Z,0
2017-11-07T06:06:17.856Z,0
2017-11-07T06:06:58.260Z,0
2017-11-07T06:07:38.733Z,0
2017-11-07T06:08:19.068Z,0
2017-11-07T06:08:59.531Z,0
2017-11-07T06:09:39.981Z,0
2017-11-07T06:10:20.477Z,0
2017-11-07T06:11:00.951Z,0
2017-11-07T06:11:41.502Z,0
2017-11-07T06:12:21.976Z,0
2017-11-07T06:13:02.610Z,0
2017-11-07T06:13:43.181Z,0
2017-11-07T06:14:23.677Z,0
2017-11-07T06:15:04.181Z,0
2017-11-07T06:15:44.794Z,0
2017-11-07T06:16:25.633Z,0
2017-11-07T06:17:06.020Z,0
2017-11-07T06:19:07.402Z,4
2017-11-07T06:22:20.537Z,4
2017-11-07T06:23:14.039Z,4
2017-11-07T06:23:58.105Z,8
2017-11-07T06:24:38.591Z,4
2017-11-07T06:25:46.396Z,8
2017-11-07T06:27:13.991Z,8
2017-11-07T06:31:36.755Z,12
2017-11-07T06:36:00.488Z,16
2017-11-07T06:36:42.182Z,16
2017-11-07T06:37:22.678Z,16
2017-11-07T06:38:03.134Z,20
2017-11-07T06:38:43.547Z,20
2017-11-07T06:39:24.064Z,20
2017-11-07T06:40:04.367Z,24
2017-11-07T06:40:44.904Z,24
2017-11-07T06:41:26.465Z,24
2017-11-07T06:42:06.968Z,24
2017-11-07T06:42:47.659Z,28
2017-11-07T06:43:28.123Z,32
2017-11-07T06:44:08.942Z,28
2017-11-07T06:44:49.602Z,32
2017-11-07T06:45:30.043Z,32
2017-11-07T06:46:10.525Z,32
2017-11-07T06:46:51.124Z,32
2017-11-07T06:47:31.709Z,32
2017-11-07T06:48:12.223Z,32
2017-11-07T06:48:52.844Z,36
2017-11-07T06:49:34.697Z,40
2017-11-07T06:50:15.431Z,40
2017-11-07T06:50:56.100Z,44
2017-11-07T06:51:36.384Z,44
2017-11-07T06:52:16.818Z,44
2017-11-07T06:52:57.155Z,48
2017-11-07T06:53:37.624Z,48
2017-11-07T06:54:17.982Z,48
2017-11-07T06:54:58.672Z,52
2017-11-07T06:55:39.157Z,48
2017-11-07T06:56:19.598Z,52
2017-11-07T06:56:59.978Z,52
2017-11-07T06:57:40.517Z,52
2017-11-07T06:58:21.013Z,56
2017-11-07T06:59:01.463Z,56
2017-11-07T06:59:42.013Z,56
2017-11-07T07:00:22.619Z,56
2017-11-07T07:01:04.848Z,56
2017-11-07T07:01:45.368Z,60
2017-11-07T07:02:25.873Z,64
2017-11-07T07:03:06.769Z,64
2017-11-07T07:03:49.090Z,68
2017-11-07T07:04:28.827Z,72
2017-11-07T07:05:09.293Z,72
2017-11-07T07:05:49.784Z,72
2017-11-07T07:06:30.398Z,80
2017-11-07T07:07:10.879Z,80
2017-11-07T07:07:51.137Z,84
2017-11-07T07:08:31.724Z,84
2017-11-07T07:09:12.202Z,88
2017-11-07T07:09:52.598Z,92
2017-11-07T07:10:37.068Z,96
2017-11-07T07:11:15.283Z,96
2017-11-07T07:11:55.713Z,100
2017-11-07T07:12:36.127Z,104
2017-11-07T07:13:16.747Z,104
2017-11-07T07:13:57.582Z,100
2017-11-07T07:14:38.237Z,104
2017-11-07T07:15:18.655Z,100
2017-11-07T07:15:59.307Z,100
2017-11-07T07:16:39.844Z,104
2017-11-07T07:17:20.232Z,104
2017-11-07T07:18:00.840Z,104
2017-11-07T07:18:41.526Z,108
2017-11-07T07:19:22.098Z,108
2017-11-07T07:20:02.491Z,108
2017-11-07T07:20:43.804Z,108
2017-11-07T07:21:24.495Z,116
2017-11-07T07:22:05.093Z,120
2017-11-07T07:22:47.727Z,116
2017-11-07T07:23:28.404Z,120
2017-11-07T07:24:08.830Z,124
2017-11-07T07:24:49.897Z,128
2017-11-07T07:25:30.657Z,128
2017-11-07T07:26:11.103Z,128
2017-11-07T07:26:51.529Z,128
2017-11-07T07:27:31.897Z,128
2017-11-07T07:28:12.575Z,132
2017-11-07T07:28:53.017Z,128
2017-11-07T07:29:33.683Z,128
2017-11-07T07:30:14.167Z,136
2017-11-07T07:30:54.555Z,144
2017-11-07T07:31:38.365Z,148
2017-11-07T07:32:19.356Z,152
2017-11-07T07:33:00.148Z,152
2017-11-07T07:36:04.676Z,168
2017-11-07T07:37:24.140Z,172
2017-11-07T07:38:47.291Z,180
2017-11-07T07:40:08.216Z,184
2017-11-07T07:41:32.419Z,180
2017-11-07T07:48:36.938Z,236
2017-11-07T07:49:52.013Z,264
2017-11-07T07:51:18.025Z,272
2017-11-07T07:52:37.872Z,280
2017-11-07T07:53:56.127Z,288
2017-11-07T08:03:43.065Z,324
2017-11-07T08:05:05.236Z,324
2017-11-07T08:06:30.443Z,332
2017-11-07T08:07:58.867Z,332
2017-11-07T08:09:26.027Z,320
2017-11-07T08:10:48.167Z,312
2017-11-07T08:12:13.567Z,308
2017-11-07T08:15:15.802Z,400
2017-11-07T08:16:32.828Z,392
2017-11-07T08:18:07.691Z,376
2017-11-07T08:19:29.761Z,376
2017-11-07T08:20:48.105Z,348
2017-11-07T08:21:59.709Z,384
2017-11-07T08:23:10.406Z,440
2017-11-07T08:24:26.773Z,456
2017-11-07T08:25:38.688Z,480
2017-11-07T08:26:56.353Z,464
2017-11-07T08:28:08.293Z,468
2017-11-07T08:29:23.066Z,496
2017-11-07T08:30:46.800Z,548
2017-11-07T08:32:04.642Z,556
2017-11-07T08:33:22.676Z,564
2017-11-07T08:34:49.817Z,612
2017-11-07T08:36:04.973Z,636
2017-11-07T08:37:15.022Z,612
2017-11-07T08:38:33.662Z,524
2017-11-07T08:39:25.361Z,472
2017-11-07T08:40:06.656Z,472
2017-11-07T08:40:49.193Z,480
2017-11-07T08:41:30.180Z,464
2017-11-07T08:42:10.487Z,472
2017-11-07T08:42:50.927Z,508
2017-11-07T08:43:32.662Z,500
2017-11-07T08:44:13.131Z,468
2017-11-07T08:44:55.054Z,488
2017-11-07T08:45:47.747Z,528
2017-11-07T08:46:43.359Z,488
2017-11-07T08:48:00.555Z,484
2017-11-07T08:48:52.538Z,520
2017-11-07T08:49:33.466Z,508
2017-11-07T08:50:14.022Z,520
2017-11-07T08:50:54.998Z,548
2017-11-07T08:51:35.836Z,556
2017-11-07T08:52:16.796Z,568
2017-11-07T08:52:57.428Z,592
2017-11-07T08:53:37.975Z,608
2017-11-07T08:54:18.609Z,604
2017-11-07T08:54:59.438Z,616
2017-11-07T08:56:15.428Z,620
2017-11-07T08:59:34.211Z,596
2017-11-07T09:01:23.198Z,624
2017-11-07T09:02:42.242Z,684
2017-11-07T09:04:02.206Z,744
2017-11-07T09:05:34.395Z,804
2017-11-07T09:06:52.285Z,792
2017-11-07T09:10:37.191Z,728
2017-11-07T09:11:54.378Z,728
2017-11-07T09:15:15.727Z,688
2017-11-07T09:16:30.455Z,712
2017-11-07T09:17:46.068Z,716
2017-11-07T09:19:09.914Z,740
2017-11-07T09:20:25.189Z,744
2017-11-07T09:21:42.736Z,784
2017-11-07T09:23:00.180Z,780
2017-11-07T09:23:42.976Z,764
2017-11-07T09:24:23.788Z,744
2017-11-07T09:25:04.898Z,736
2017-11-07T09:25:45.711Z,740
2017-11-07T09:26:26.553Z,744
2017-11-07T09:27:07.118Z,752
2017-11-07T09:27:48.021Z,732
2017-11-07T09:28:28.742Z,736
2017-11-07T09:29:09.384Z,732
2017-11-07T09:29:50.186Z,728
2017-11-07T09:30:30.744Z,712
2017-11-07T09:31:11.307Z,688
2017-11-07T09:31:52.347Z,688
2017-11-07T09:32:32.964Z,692
2017-11-07T09:33:13.320Z,716
2017-11-07T09:33:55.082Z,720
2017-11-07T09:34:35.552Z,688
2017-11-07T09:35:15.893Z,660
2017-11-07T09:35:56.509Z,656
2017-11-07T09:36:37.090Z,652
2017-11-07T09:37:17.616Z,660
2017-11-07T09:37:57.986Z,684
2017-11-07T09:38:38.709Z,688
2017-11-07T09:39:19.081Z,700
2017-11-07T09:39:59.983Z,724
2017-11-07T09:40:40.382Z,776
2017-11-07T09:41:20.777Z,844
2017-11-07T09:42:01.710Z,952
2017-11-07T09:42:42.085Z,1008
2017-11-07T09:43:22.562Z,1044
2017-11-07T09:44:03.051Z,1044
2017-11-07T09:44:43.785Z,980
2017-11-07T09:45:24.183Z,924
2017-11-07T09:50:20.486Z,724
2017-11-07T09:51:35.792Z,724
2017-11-07T09:52:56.351Z,720
2017-11-07T09:54:10.684Z,720
2017-11-07T09:55:26.143Z,700
2017-11-07T09:56:40.880Z,688
2017-11-07T09:58:08.486Z,708
2017-11-07T10:01:36.640Z,852
2017-11-07T10:02:57.441Z,844
2017-11-07T11:10:29.973Z,876
2017-11-07T11:11:12.663Z,868
2017-11-07T11:11:53.810Z,860
2017-11-07T11:12:34.808Z,872
2017-11-07T11:13:17.028Z,892
2017-11-07T11:13:58.668Z,924
2017-11-07T11:14:39.608Z,976
2017-11-07T11:15:26.685Z,1012
2017-11-07T11:21:28.780Z,852
2017-11-07T11:22:43.974Z,816
2017-11-07T11:26:05.377Z,964
2017-11-07T11:27:28.636Z,992
2017-11-07T11:28:56.626Z,948
2017-11-07T11:30:15.575Z,908
2017-11-07T11:31:47.165Z,984
2017-11-07T11:33:09.639Z,1052
2017-11-07T11:34:35.416Z,1168
2017-11-07T11:37:08.984Z,1116
2017-11-07T11:38:30.330Z,1244
2017-11-07T11:41:10.623Z,1128
2017-11-07T11:41:52.834Z,1040
2017-11-07T11:42:34.527Z,1064
2017-11-07T11:43:17.126Z,1092
2017-11-07T11:43:57.622Z,1104
2017-11-07T11:44:38.379Z,1128
2017-11-07T11:45:19.439Z,1056
2017-11-07T11:46:01.601Z,1076
2017-11-07T11:46:44.056Z,1252
2017-11-07T11:47:29.910Z,1264
2017-11-07T11:48:07.482Z,1072
2017-11-07T11:48:48.195Z,1016
2017-11-07T11:49:29.911Z,1088
2017-11-07T11:50:11.137Z,1196
2017-11-07T11:50:51.889Z,1168
2017-11-07T11:51:36.016Z,1184
2017-11-07T11:52:16.142Z,1140
2017-11-07T11:52:56.776Z,1016
2017-11-07T11:53:37.021Z,988
2017-11-07T11:54:17.682Z,1004
2017-11-07T11:57:09.850Z,1052
2017-11-07T11:58:23.948Z,1020
2017-11-07T11:59:44.140Z,1020
2017-11-07T12:00:58.886Z,996
2017-11-07T12:02:22.551Z,1004
2017-11-07T12:03:44.220Z,1020
2017-11-07T12:05:11.478Z,1040
2017-11-07T12:06:36.262Z,1064
2017-11-07T12:07:56.660Z,1096
2017-11-07T12:09:14.542Z,1084
2017-11-07T12:10:02.253Z,1096
2017-11-07T12:10:42.713Z,1092
2017-11-07T12:11:23.187Z,1084
2017-11-07T12:12:03.693Z,1088
2017-11-07T12:12:44.161Z,1092
2017-11-07T12:13:24.715Z,1084
2017-11-07T12:14:05.284Z,1076
2017-11-07T12:14:46.106Z,1080
2017-11-07T12:15:26.438Z,1096
2017-11-07T12:16:07.065Z,1112
2017-11-07T12:16:48.430Z,1112
2017-11-07T12:17:28.866Z,1112
2017-11-07T12:18:09.548Z,1112
2017-11-07T12:18:50.028Z,1104
2017-11-07T12:19:31.995Z,1096
2017-11-07T12:20:12.894Z,1084
2017-11-07T12:20:53.547Z,1064
2017-11-07T12:21:34.922Z,1044
2017-11-07T12:22:15.710Z,1020
2017-11-07T12:22:56.638Z,1000
2017-11-07T12:23:37.161Z,984
2017-11-07T12:27:47.218Z,908
2017-11-07T12:30:54.753Z,824
2017-11-07T12:31:47.156Z,812
2017-11-07T12:32:36.765Z,796
2017-11-07T12:37:06.095Z,788
2017-11-07T12:38:02.912Z,772
2017-11-07T12:38:43.124Z,748
2017-11-07T12:39:23.945Z,716
2017-11-07T12:40:04.570Z,688
2017-11-07T12:40:46.000Z,668
2017-11-07T12:41:27.521Z,656
2017-11-07T12:42:07.755Z,644
2017-11-07T12:42:48.771Z,632
2017-11-07T12:43:30.119Z,624
2017-11-07T12:44:11.156Z,620
2017-11-07T12:44:51.904Z,616
2017-11-07T12:56:47.752Z,548
2017-11-07T12:57:40.721Z,536
2017-11-07T16:48:06.212Z,0
2017-11-07T16:48:46.761Z,0
2017-11-07T16:49:27.504Z,0
2017-11-07T16:50:08.072Z,0
2017-11-07T16:50:48.836Z,0
2017-11-07T16:51:29.272Z,0
2017-11-07T16:52:09.655Z,0
2017-11-07T16:52:50.392Z,0
2017-11-07T16:53:31.301Z,0
2017-11-07T16:54:11.789Z,0
2017-11-07T16:54:52.423Z,0
2017-11-07T16:55:32.824Z,0
2017-11-07T16:56:13.265Z,0
2017-11-07T16:56:53.768Z,0
2017-11-07T16:57:34.074Z,0
2017-11-07T16:58:14.518Z,0
2017-11-07T16:58:54.977Z,0
2017-11-07T16:59:35.395Z,0
2017-11-07T17:00:15.787Z,0
2017-11-07T17:00:56.254Z,0
2017-11-07T17:01:36.733Z,0
2017-11-07T17:02:17.106Z,0
2017-11-07T17:02:57.551Z,0
2017-11-07T17:03:38.105Z,0
2017-11-07T17:04:18.567Z,0
2017-11-07T17:04:59.077Z,0
2017-11-07T17:05:39.441Z,0
2017-11-07T17:06:19.883Z,0
2017-11-07T17:07:01.448Z,0
2017-11-07T17:07:42.028Z,0
2017-11-07T17:08:22.446Z,0
2017-11-07T17:09:02.889Z,0
2017-11-07T17:09:43.244Z,0
2017-11-07T17:10:23.712Z,0
2017-11-07T17:11:04.130Z,0
2017-11-07T17:11:44.553Z,0
2017-11-07T17:12:25.073Z,0
2017-11-07T17:13:05.476Z,0
2017-11-07T17:13:45.874Z,0
2017-11-07T17:14:26.253Z,0
2017-11-07T17:15:06.797Z,0
2017-11-07T17:15:47.150Z,0
2017-11-07T17:16:27.544Z,0
2017-11-07T17:17:07.983Z,0
2017-11-07T17:17:48.538Z,0
2017-11-07T17:18:29.894Z,0
2017-11-07T17:19:10.361Z,0
2017-11-07T17:19:50.781Z,0
2017-11-07T17:20:31.254Z,0
2017-11-07T17:21:11.736Z,0
2017-11-07T17:21:52.121Z,0
2017-11-07T17:22:32.498Z,0
2017-11-07T17:23:12.954Z,0
2017-11-07T17:23:53.379Z,0
2017-11-07T17:24:33.848Z,0
2017-11-07T17:25:14.258Z,0
2017-11-07T17:25:54.674Z,0
2017-11-07T17:26:35.054Z,0
2017-11-07T17:27:15.458Z,0
2017-11-07T17:27:55.941Z,0
2017-11-07T17:28:36.328Z,0
2017-11-07T17:29:16.749Z,0
2017-11-07T17:29:57.294Z,0
2017-11-07T17:30:37.712Z,0
2017-11-07T17:31:18.276Z,0
2017-11-07T17:31:58.781Z,0
2017-11-07T17:32:39.332Z,0
2017-11-07T17:33:19.779Z,0
2017-11-07T17:34:00.191Z,0
2017-11-07T17:34:40.720Z,0
2017-11-07T17:35:21.149Z,0
2017-11-07T17:36:01.514Z,0
2017-11-07T17:36:41.908Z,0
2017-11-07T17:37:22.360Z,0
2017-11-07T17:38:02.759Z,0
2017-11-07T17:38:43.246Z,0
2017-11-07T17:39:23.603Z,0
2017-11-07T17:40:04.097Z,0
2017-11-07T17:40:44.453Z,0
2017-11-07T17:41:24.966Z,0
2017-11-07T17:42:05.389Z,0
2017-11-07T17:42:45.793Z,0
2017-11-07T17:43:26.156Z,0
2017-11-07T17:44:06.605Z,0